Terminal Aerodrome Forecast
Issued by NWS

Home | Current Version | Previous Version | Text Only | Print | Product List | Glossary On
Versions: 1 2 3 4 5 6 7 8 9 10 11 12 13 14 15
360
FTUS42 TJSJ 231140
TAFJBQ
TAF
TJBQ 231140Z 2312/2412 21008KT P6SM VCSH SCT020 BKN050
     FM240300 VRB04KT P6SM VCSH SCT020 BKN050
      AMD NOT SKED=

USA.gov is the U.S. government's official web portal to all federal, state and local government web resources and services.